Time;durP1;ratioP1;P1;durP2;ratioP2;P2;SDS_P1;SDS_P2;PMS_P1;PMS_P2;Temp;Humidity;BMP_temperature;BMP_pressure;BME280_temperature;BME280_humidity;BME280_pressure;Samples;Min_cycle;Max_cycle;Signal;HPM_P1;HPM_P2
2022/05/08 00:01:28;;;;;;;12.63;6.50;;;;;;;;;;5075654;28;20063;-67
2022/05/08 00:03:53;;;;;;;12.30;6.53;;;;;;;;;;5073119;28;20020;-67
2022/05/08 00:06:18;;;;;;;11.25;6.15;;;;;;;;;;5083208;28;20024;-71
2022/05/08 00:08:44;;;;;;;12.63;7.72;;;;;;;;;;5081131;28;20098;-67
2022/05/08 00:11:09;;;;;;;12.32;5.90;;;;;;;;;;5083362;28;20089;-67
2022/05/08 00:13:35;;;;;;;7.47;5.30;;;;;;;;;;5070719;28;20026;-69
2022/05/08 00:16:00;;;;;;;9.98;5.65;;;;;;;;;;5073300;28;20119;-68
2022/05/08 00:18:26;;;;;;;11.50;5.65;;;;;;;;;;5081675;28;20107;-67
2022/05/08 00:20:51;;;;;;;11.13;6.32;;;;;;;;;;5082204;28;20024;-69
2022/05/08 00:23:16;;;;;;;10.27;6.57;;;;;;;;;;5082305;28;20110;-68
2022/05/08 00:25:42;;;;;;;15.43;6.82;;;;;;;;;;5081535;28;20046;-67
2022/05/08 00:28:07;;;;;;;8.65;6.63;;;;;;;;;;5081726;28;20035;-67
2022/05/08 00:30:33;;;;;;;7.82;6.60;;;;;;;;;;5081367;28;20024;-67
2022/05/08 00:32:58;;;;;;;11.80;8.27;;;;;;;;;;5068721;28;20088;-66
2022/05/08 00:35:24;;;;;;;16.77;9.07;;;;;;;;;;5062941;28;20028;-68
2022/05/08 00:37:49;;;;;;;15.52;8.93;;;;;;;;;;5082203;28;20027;-68
2022/05/08 00:40:14;;;;;;;12.45;8.30;;;;;;;;;;5081897;28;20016;-70
2022/05/08 00:42:41;;;;;;;11.30;6.90;;;;;;;;;;5082347;28;20039;-69
2022/05/08 00:45:07;;;;;;;10.82;7.50;;;;;;;;;;5082180;28;20027;-69
2022/05/08 00:47:32;;;;;;;11.15;7.38;;;;;;;;;;5075397;28;20034;-68
2022/05/08 00:49:57;;;;;;;9.10;6.55;;;;;;;;;;5076520;28;20085;-69
2022/05/08 00:52:23;;;;;;;10.88;6.45;;;;;;;;;;5080785;28;21174;-69
2022/05/08 00:54:48;;;;;;;10.82;6.18;;;;;;;;;;5080994;28;20039;-70
2022/05/08 00:57:13;;;;;;;9.32;5.70;;;;;;;;;;5069505;28;20035;-70
2022/05/08 00:59:39;;;;;;;13.73;6.38;;;;;;;;;;5073352;28;20420;-68
2022/05/08 01:02:04;;;;;;;10.82;6.88;;;;;;;;;;5079329;28;20016;-69
2022/05/08 01:04:30;;;;;;;16.25;8.68;;;;;;;;;;5080861;28;20039;-69
2022/05/08 01:06:56;;;;;;;19.90;10.38;;;;;;;;;;5074300;28;20049;-68
2022/05/08 01:09:22;;;;;;;20.17;10.73;;;;;;;;;;5074043;28;20038;-68
2022/05/08 01:11:47;;;;;;;16.75;8.18;;;;;;;;;;5081294;28;20062;-69
2022/05/08 01:14:14;;;;;;;10.80;7.03;;;;;;;;;;5081348;28;20146;-69
2022/05/08 01:16:40;;;;;;;9.20;6.38;;;;;;;;;;5072996;28;20140;-72
2022/05/08 01:19:05;;;;;;;9.82;6.70;;;;;;;;;;5060966;28;20108;-69
2022/05/08 01:21:41;;;;;;;11.82;7.05;;;;;;;;;;5081234;28;20050;-68
2022/05/08 01:24:07;;;;;;;10.18;6.82;;;;;;;;;;5080345;28;20024;-68
2022/05/08 01:26:32;;;;;;;11.18;7.53;;;;;;;;;;5080634;28;20047;-69
2022/05/08 01:28:58;;;;;;;11.80;7.88;;;;;;;;;;5080724;28;20028;-69
2022/05/08 01:31:23;;;;;;;11.38;7.97;;;;;;;;;;5081625;28;20173;-69
2022/05/08 01:33:49;;;;;;;10.75;6.95;;;;;;;;;;5080841;28;20066;-68
2022/05/08 01:36:14;;;;;;;9.80;5.63;;;;;;;;;;5077886;28;20028;-71
2022/05/08 01:38:39;;;;;;;10.52;5.22;;;;;;;;;;5071397;28;20039;-70
2022/05/08 01:41:05;;;;;;;6.47;5.32;;;;;;;;;;5080751;28;20358;-68
2022/05/08 01:43:36;;;;;;;10.43;5.53;;;;;;;;;;5079087;28;20036;-69
2022/05/08 01:46:05;;;;;;;8.23;5.43;;;;;;;;;;5079004;28;20724;-68
2022/05/08 01:48:31;;;;;;;7.32;5.00;;;;;;;;;;5080430;28;20036;-68
2022/05/08 01:50:57;;;;;;;9.27;6.15;;;;;;;;;;5080345;28;20339;-70
2022/05/08 01:53:27;;;;;;;12.73;8.05;;;;;;;;;;5080269;28;20466;-68
2022/05/08 01:55:54;;;;;;;11.65;6.80;;;;;;;;;;5068769;28;20401;-68
2022/05/08 01:58:20;;;;;;;13.50;7.45;;;;;;;;;;5080298;28;20024;-67
2022/05/08 02:00:46;;;;;;;10.05;6.53;;;;;;;;;;5080330;28;20118;-67
2022/05/08 02:03:12;;;;;;;9.45;6.18;;;;;;;;;;5081144;28;20152;-69
2022/05/08 02:05:39;;;;;;;9.63;5.82;;;;;;;;;;5080251;28;20039;-69
2022/05/08 02:08:04;;;;;;;9.57;5.68;;;;;;;;;;5071992;28;20543;-71
2022/05/08 02:10:29;;;;;;;10.32;6.43;;;;;;;;;;5069299;28;20115;-68
2022/05/08 02:12:55;;;;;;;9.82;6.18;;;;;;;;;;5071238;28;20024;-68
2022/05/08 02:15:20;;;;;;;8.43;5.93;;;;;;;;;;5073717;28;20039;-66
2022/05/08 02:17:45;;;;;;;7.68;5.32;;;;;;;;;;5061623;28;20020;-67
2022/05/08 02:20:11;;;;;;;10.68;5.47;;;;;;;;;;5070883;28;20101;-67
2022/05/08 02:22:37;;;;;;;8.90;5.97;;;;;;;;;;5070221;28;20016;-71
2022/05/08 02:25:03;;;;;;;11.48;6.35;;;;;;;;;;5077870;28;20031;-69
2022/05/08 02:27:35;;;;;;;12.00;6.15;;;;;;;;;;5069229;28;20028;-69
2022/05/08 02:30:01;;;;;;;10.80;6.70;;;;;;;;;;5080321;28;20028;-68
2022/05/08 02:32:26;;;;;;;9.25;6.40;;;;;;;;;;5080315;28;20492;-71
2022/05/08 02:34:51;;;;;;;9.68;6.53;;;;;;;;;;5062584;28;20035;-70
2022/05/08 02:37:16;;;;;;;12.80;6.75;;;;;;;;;;5079016;28;20015;-67
2022/05/08 02:39:43;;;;;;;10.85;7.13;;;;;;;;;;5068296;28;20028;-67
2022/05/08 02:42:08;;;;;;;8.38;6.40;;;;;;;;;;5079835;28;20043;-71
2022/05/08 02:44:33;;;;;;;8.52;6.72;;;;;;;;;;5079346;28;20020;-67
2022/05/08 02:46:59;;;;;;;10.00;7.35;;;;;;;;;;5079774;28;20335;-68
2022/05/08 02:49:24;;;;;;;12.32;6.63;;;;;;;;;;5079449;28;20027;-68
2022/05/08 02:51:50;;;;;;;11.43;6.97;;;;;;;;;;5079983;28;20100;-68
2022/05/08 02:54:15;;;;;;;12.20;7.18;;;;;;;;;;5079049;28;20324;-71
2022/05/08 02:59:25;;;;;;;11.77;6.38;;;;;;;;;;5080080;28;20043;-68
2022/05/08 03:01:50;;;;;;;26.42;11.50;;;;;;;;;;5083124;28;20028;-67
2022/05/08 03:04:15;;;;;;;15.55;8.63;;;;;;;;;;5084105;28;20533;-69
2022/05/08 03:06:40;;;;;;;21.77;9.32;;;;;;;;;;5083632;28;20091;-66
2022/05/08 03:09:06;;;;;;;16.55;8.85;;;;;;;;;;5083648;28;20056;-66
2022/05/08 03:11:32;;;;;;;14.65;8.25;;;;;;;;;;5066505;28;20088;-67
2022/05/08 03:13:58;;;;;;;11.73;7.93;;;;;;;;;;5077483;28;20028;-67
2022/05/08 03:16:25;;;;;;;14.20;7.80;;;;;;;;;;5077204;28;20343;-71
2022/05/08 03:18:51;;;;;;;8.93;7.00;;;;;;;;;;5083873;28;20027;-69
2022/05/08 03:21:16;;;;;;;10.02;6.10;;;;;;;;;;5083358;28;20024;-68
2022/05/08 03:23:42;;;;;;;8.80;6.40;;;;;;;;;;5084079;28;20024;-69
2022/05/08 03:26:08;;;;;;;11.70;6.78;;;;;;;;;;5083702;28;20034;-66
2022/05/08 03:28:34;;;;;;;10.13;6.38;;;;;;;;;;5083667;28;20024;-69
2022/05/08 03:31:00;;;;;;;16.48;9.10;;;;;;;;;;5083481;28;20358;-69
2022/05/08 03:33:25;;;;;;;21.85;10.35;;;;;;;;;;5083965;28;20028;-70
2022/05/08 03:35:51;;;;;;;21.60;10.65;;;;;;;;;;5083511;28;20051;-67
2022/05/08 03:38:18;;;;;;;21.88;10.23;;;;;;;;;;5072288;28;20020;-68
2022/05/08 03:40:43;;;;;;;11.93;7.40;;;;;;;;;;5083675;28;20028;-71
2022/05/08 03:43:09;;;;;;;12.38;7.68;;;;;;;;;;5084683;28;20020;-68
2022/05/08 03:45:34;;;;;;;14.05;8.10;;;;;;;;;;5085082;28;20028;-69
2022/05/08 03:48:00;;;;;;;17.08;9.73;;;;;;;;;;5084525;28;20331;-68
2022/05/08 03:50:25;;;;;;;14.70;8.55;;;;;;;;;;5074635;28;20462;-67
2022/05/08 03:52:50;;;;;;;17.95;8.93;;;;;;;;;;5069791;28;20100;-68
2022/05/08 03:55:16;;;;;;;13.13;8.15;;;;;;;;;;5069598;28;20047;-69
2022/05/08 03:57:42;;;;;;;15.93;7.47;;;;;;;;;;5080165;28;20381;-68
2022/05/08 04:00:08;;;;;;;9.98;7.00;;;;;;;;;;5083600;28;20036;-67
2022/05/08 04:02:33;;;;;;;12.07;7.63;;;;;;;;;;5082564;28;20493;-70
2022/05/08 04:05:00;;;;;;;18.42;8.10;;;;;;;;;;5082806;28;20541;-67
2022/05/08 04:07:25;;;;;;;16.88;8.30;;;;;;;;;;5083154;28;20071;-66
2022/05/08 04:09:51;;;;;;;10.50;7.10;;;;;;;;;;5082957;28;20028;-67
2022/05/08 04:12:16;;;;;;;11.52;7.28;;;;;;;;;;5080189;28;20016;-66
2022/05/08 04:14:42;;;;;;;9.13;7.47;;;;;;;;;;5073612;28;20019;-69
2022/05/08 04:17:07;;;;;;;9.13;7.35;;;;;;;;;;5082854;28;20055;-70
2022/05/08 04:19:33;;;;;;;10.95;7.35;;;;;;;;;;5082328;28;20027;-67
2022/05/08 04:24:42;;;;;;;8.88;7.40;;;;;;;;;;5075871;28;20627;-70
2022/05/08 04:27:08;;;;;;;11.70;8.23;;;;;;;;;;5077243;28;20023;-66
2022/05/08 04:29:33;;;;;;;13.10;8.55;;;;;;;;;;5082647;28;20092;-66
2022/05/08 04:31:58;;;;;;;9.90;8.35;;;;;;;;;;5081721;28;20364;-67
2022/05/08 04:34:24;;;;;;;14.32;9.77;;;;;;;;;;5063622;28;20494;-66
2022/05/08 04:36:49;;;;;;;18.05;10.00;;;;;;;;;;5082356;28;20077;-70
2022/05/08 04:39:15;;;;;;;16.05;9.57;;;;;;;;;;5070624;28;20043;-66
2022/05/08 04:41:40;;;;;;;13.23;8.98;;;;;;;;;;5081997;28;20140;-70
2022/05/08 04:44:05;;;;;;;11.60;8.35;;;;;;;;;;5081964;28;20348;-67
2022/05/08 04:46:31;;;;;;;14.27;8.95;;;;;;;;;;5080722;28;20036;-67
2022/05/08 04:48:56;;;;;;;8.68;7.45;;;;;;;;;;5064406;28;20134;-68
2022/05/08 04:51:22;;;;;;;18.17;9.02;;;;;;;;;;5081862;28;20035;-67
2022/05/08 04:53:47;;;;;;;14.18;8.43;;;;;;;;;;5081637;28;20024;-67
2022/05/08 04:56:12;;;;;;;12.93;8.20;;;;;;;;;;5081709;28;20084;-66
2022/05/08 04:58:38;;;;;;;14.90;8.90;;;;;;;;;;5081476;28;20024;-71
2022/05/08 05:01:04;;;;;;;12.80;7.95;;;;;;;;;;5080523;28;20131;-70
2022/05/08 05:03:29;;;;;;;13.25;8.20;;;;;;;;;;5072129;28;20028;-71
2022/05/08 05:05:55;;;;;;;12.00;8.27;;;;;;;;;;5064447;28;20054;-70
2022/05/08 05:08:21;;;;;;;12.43;8.68;;;;;;;;;;5080083;28;20040;-71
2022/05/08 05:10:46;;;;;;;13.82;8.85;;;;;;;;;;5081268;28;20032;-70
2022/05/08 05:13:12;;;;;;;14.02;8.75;;;;;;;;;;5081517;28;20427;-69
2022/05/08 05:15:37;;;;;;;14.07;8.65;;;;;;;;;;5069242;28;20100;-66
2022/05/08 05:18:03;;;;;;;14.95;9.65;;;;;;;;;;5080881;28;20024;-67
2022/05/08 05:20:29;;;;;;;14.75;10.63;;;;;;;;;;5081170;28;20408;-69
2022/05/08 05:22:54;;;;;;;12.00;8.23;;;;;;;;;;5080238;28;20016;-68
2022/05/08 05:25:20;;;;;;;11.32;8.52;;;;;;;;;;5081470;28;20051;-70
2022/05/08 05:27:45;;;;;;;10.57;8.07;;;;;;;;;;5057578;28;20028;-66
2022/05/08 05:30:11;;;;;;;9.30;7.57;;;;;;;;;;5075334;28;20028;-65
2022/05/08 05:32:37;;;;;;;11.90;8.25;;;;;;;;;;5081147;28;20020;-67
2022/05/08 05:35:02;;;;;;;16.35;10.30;;;;;;;;;;5080460;28;20328;-69
2022/05/08 05:37:28;;;;;;;17.65;12.35;;;;;;;;;;5080345;28;20039;-64
2022/05/08 05:39:53;;;;;;;12.10;9.68;;;;;;;;;;5080632;28;20020;-69
2022/05/08 05:42:18;;;;;;;15.48;10.15;;;;;;;;;;5062014;28;20039;-66
2022/05/08 05:44:44;;;;;;;11.45;8.40;;;;;;;;;;5080456;28;20054;-66
2022/05/08 05:49:53;;;;;;;11.77;9.13;;;;;;;;;;5081136;28;20114;-68
2022/05/08 05:52:18;;;;;;;10.52;8.90;;;;;;;;;;5078792;28;20118;-72
2022/05/08 05:54:44;;;;;;;11.88;8.80;;;;;;;;;;5068520;28;20064;-66
2022/05/08 05:57:09;;;;;;;9.95;8.05;;;;;;;;;;5066148;28;20028;-66
2022/05/08 05:59:34;;;;;;;13.18;8.18;;;;;;;;;;5067170;28;20012;-65
2022/05/08 06:02:00;;;;;;;11.40;7.90;;;;;;;;;;5066477;28;20042;-66
2022/05/08 06:04:25;;;;;;;9.98;7.60;;;;;;;;;;5067387;28;20313;-74
2022/05/08 06:06:50;;;;;;;10.82;6.53;;;;;;;;;;5079349;28;20083;-69
2022/05/08 06:09:15;;;;;;;11.43;7.07;;;;;;;;;;5077403;28;20031;-69
2022/05/08 06:11:41;;;;;;;8.30;6.30;;;;;;;;;;5072776;28;20039;-70
2022/05/08 06:14:06;;;;;;;10.25;6.20;;;;;;;;;;5080148;28;20020;-66
2022/05/08 06:16:31;;;;;;;12.25;5.85;;;;;;;;;;5072930;28;20524;-67
2022/05/08 06:18:57;;;;;;;11.27;6.20;;;;;;;;;;5064775;28;20036;-64
2022/05/08 06:21:23;;;;;;;9.02;6.38;;;;;;;;;;5074832;28;20036;-65
2022/05/08 06:23:48;;;;;;;10.70;6.72;;;;;;;;;;5080178;28;20411;-66
2022/05/08 06:26:15;;;;;;;7.97;5.40;;;;;;;;;;5068177;28;20028;-67
2022/05/08 06:28:41;;;;;;;8.02;5.60;;;;;;;;;;5074746;28;20401;-66
2022/05/08 06:31:06;;;;;;;8.98;5.38;;;;;;;;;;5078572;28;20035;-71
2022/05/08 06:33:32;;;;;;;16.20;6.65;;;;;;;;;;5066364;28;20032;-67
2022/05/08 06:35:57;;;;;;;7.88;5.82;;;;;;;;;;5067576;28;20028;-69
2022/05/08 06:38:22;;;;;;;11.77;5.75;;;;;;;;;;5078038;28;20351;-68
2022/05/08 06:40:48;;;;;;;8.10;5.85;;;;;;;;;;5075094;28;20332;-67
2022/05/08 06:43:13;;;;;;;10.00;5.03;;;;;;;;;;5074577;28;20354;-68
2022/05/08 06:45:38;;;;;;;6.03;4.65;;;;;;;;;;5080102;28;20036;-69
2022/05/08 06:48:05;;;;;;;12.57;5.47;;;;;;;;;;5079598;28;20024;-70
2022/05/08 06:50:31;;;;;;;6.75;5.13;;;;;;;;;;5078788;28;20054;-70
2022/05/08 06:52:56;;;;;;;10.50;5.22;;;;;;;;;;5073209;28;20866;-68
2022/05/08 06:55:21;;;;;;;8.75;5.07;;;;;;;;;;5068285;28;20027;-71
2022/05/08 06:57:47;;;;;;;9.32;5.57;;;;;;;;;;5079186;28;20046;-69
2022/05/08 07:02:56;;;;;;;6.85;5.10;;;;;;;;;;5067341;28;20035;-67
2022/05/08 07:05:22;;;;;;;8.60;4.97;;;;;;;;;;5080178;28;20028;-68
2022/05/08 07:07:47;;;;;;;7.75;5.88;;;;;;;;;;5076485;28;21117;-69
2022/05/08 07:10:12;;;;;;;16.42;5.78;;;;;;;;;;5066830;28;20036;-69
2022/05/08 07:12:38;;;;;;;8.13;6.28;;;;;;;;;;5066692;28;20020;-69
2022/05/08 07:15:03;;;;;;;8.82;5.20;;;;;;;;;;5055128;28;20427;-69
2022/05/08 07:17:29;;;;;;;8.30;4.82;;;;;;;;;;5072375;28;20042;-67
2022/05/08 07:19:55;;;;;;;8.77;5.15;;;;;;;;;;5076314;28;20351;-73
2022/05/08 07:22:21;;;;;;;12.32;5.60;;;;;;;;;;5080625;28;20442;-67
2022/05/08 07:24:46;;;;;;;8.95;5.20;;;;;;;;;;5069826;28;20020;-69
2022/05/08 07:27:12;;;;;;;10.82;5.82;;;;;;;;;;5078924;28;20023;-69
2022/05/08 07:29:40;;;;;;;8.80;6.13;;;;;;;;;;5068261;28;20028;-72
2022/05/08 07:32:05;;;;;;;12.98;8.90;;;;;;;;;;5064480;28;20423;-69
2022/05/08 07:37:15;;;;;;;11.35;6.07;;;;;;;;;;5075834;28;20351;-72
2022/05/08 07:39:40;;;;;;;9.80;6.05;;;;;;;;;;5064956;28;20028;-70
2022/05/08 07:42:05;;;;;;;8.70;5.05;;;;;;;;;;5060240;28;20102;-70
2022/05/08 07:44:31;;;;;;;8.57;4.38;;;;;;;;;;5066020;28;20027;-69
2022/05/08 07:46:56;;;;;;;10.40;5.82;;;;;;;;;;5075655;28;20028;-69
2022/05/08 07:49:21;;;;;;;7.53;4.47;;;;;;;;;;5070975;28;20047;-67
2022/05/08 07:51:47;;;;;;;8.38;6.00;;;;;;;;;;5082890;28;20020;-67
2022/05/08 07:54:12;;;;;;;9.98;5.53;;;;;;;;;;5082595;28;20031;-66
2022/05/08 07:56:37;;;;;;;7.15;4.50;;;;;;;;;;5072373;28;20024;-68
2022/05/08 07:59:03;;;;;;;13.32;5.15;;;;;;;;;;5080957;28;20392;-68
2022/05/08 08:01:28;;;;;;;8.98;5.07;;;;;;;;;;5082853;28;20031;-70
2022/05/08 08:03:53;;;;;;;6.78;4.63;;;;;;;;;;5082215;28;20024;-70
2022/05/08 08:06:19;;;;;;;8.02;4.13;;;;;;;;;;5080035;28;20066;-68
2022/05/08 08:08:44;;;;;;;6.55;3.92;;;;;;;;;;5071976;28;20734;-72
2022/05/08 08:11:11;;;;;;;6.15;4.13;;;;;;;;;;5073933;28;20024;-70
2022/05/08 08:13:36;;;;;;;11.43;6.55;;;;;;;;;;5082617;28;20407;-68
2022/05/08 08:16:02;;;;;;;7.82;4.22;;;;;;;;;;5080771;28;20158;-65
2022/05/08 08:18:28;;;;;;;5.32;3.85;;;;;;;;;;5064936;28;20042;-67
2022/05/08 08:20:53;;;;;;;7.05;5.28;;;;;;;;;;5074186;28;20039;-71
2022/05/08 08:23:19;;;;;;;6.30;4.60;;;;;;;;;;5068215;28;20099;-71
2022/05/08 08:25:45;;;;;;;8.65;4.60;;;;;;;;;;5079012;28;20085;-69
2022/05/08 08:28:10;;;;;;;16.92;14.10;;;;;;;;;;5082627;28;20987;-68
2022/05/08 08:30:36;;;;;;;66.82;41.17;;;;;;;;;;5081635;28;20419;-67
2022/05/08 08:33:02;;;;;;;152.75;92.30;;;;;;;;;;5082320;28;20055;-68
2022/05/08 08:35:27;;;;;;;57.63;34.38;;;;;;;;;;5080634;28;20650;-74
2022/05/08 08:37:52;;;;;;;32.17;26.48;;;;;;;;;;5082512;28;20032;-68
2022/05/08 08:40:18;;;;;;;9.48;7.75;;;;;;;;;;5083216;28;20024;-71
2022/05/08 08:42:44;;;;;;;6.63;4.80;;;;;;;;;;5065790;28;20032;-69
2022/05/08 08:47:57;;;;;;;174.55;101.72;;;;;;;;;;5080316;28;20402;-68
2022/05/08 08:50:26;;;;;;;230.85;122.55;;;;;;;;;;5065172;28;20077;-70
2022/05/08 08:53:03;;;;;;;144.57;77.05;;;;;;;;;;5062604;28;20052;-72
2022/05/08 08:55:28;;;;;;;61.03;37.25;;;;;;;;;;5082901;28;20032;-72
2022/05/08 08:57:53;;;;;;;54.65;37.67;;;;;;;;;;5082066;28;20458;-71
2022/05/08 09:00:20;;;;;;;23.13;15.18;;;;;;;;;;5080739;28;20085;-72
2022/05/08 09:02:47;;;;;;;25.98;17.42;;;;;;;;;;5082823;28;20111;-69
2022/05/08 09:05:13;;;;;;;10.57;7.68;;;;;;;;;;5082967;28;20119;-68
2022/05/08 09:07:45;;;;;;;12.98;5.72;;;;;;;;;;5074876;28;20123;-70
2022/05/08 09:10:18;;;;;;;10.02;4.10;;;;;;;;;;5067394;28;20028;-69
2022/05/08 09:12:52;;;;;;;15.38;8.88;;;;;;;;;;5070956;28;20024;-70
2022/05/08 09:15:21;;;;;;;7.88;4.05;;;;;;;;;;5081884;28;20031;-74
2022/05/08 09:17:47;;;;;;;5.93;3.75;;;;;;;;;;5082561;28;20016;-69
2022/05/08 09:20:29;;;;;;;13.75;9.77;;;;;;;;;;5083001;28;20729;-73
2022/05/08 09:23:06;;;;;;;4.88;3.80;;;;;;;;;;5053165;28;20420;-69
2022/05/08 09:25:52;;;;;;;6.55;3.53;;;;;;;;;;5081802;28;20028;-75
2022/05/08 09:28:41;;;;;;;5.35;3.55;;;;;;;;;;5081272;28;20046;-69
2022/05/08 09:31:07;;;;;;;5.57;3.92;;;;;;;;;;5073990;28;20391;-70
2022/05/08 09:33:32;;;;;;;7.40;3.80;;;;;;;;;;5065596;28;20354;-70
2022/05/08 09:35:59;;;;;;;7.75;6.03;;;;;;;;;;5066806;28;20115;-69
2022/05/08 09:38:40;;;;;;;43.70;30.67;;;;;;;;;;5080947;28;20028;-70
2022/05/08 09:41:06;;;;;;;29.38;19.42;;;;;;;;;;5067384;28;20019;-70
2022/05/08 09:43:34;;;;;;;9.93;7.43;;;;;;;;;;5081962;28;20020;-69
2022/05/08 09:46:00;;;;;;;12.57;7.18;;;;;;;;;;5074241;28;20040;-69
2022/05/08 09:48:26;;;;;;;16.65;11.23;;;;;;;;;;5069408;28;20028;-71
2022/05/08 09:50:56;;;;;;;8.85;5.28;;;;;;;;;;5070064;28;20027;-75
2022/05/08 09:53:21;;;;;;;10.25;8.60;;;;;;;;;;5069726;28;20027;-69
2022/05/08 09:55:47;;;;;;;7.43;5.88;;;;;;;;;;5066942;28;20032;-76
2022/05/08 09:58:12;;;;;;;7.20;4.60;;;;;;;;;;5071902;28;20024;-71
2022/05/08 10:00:39;;;;;;;9.00;4.28;;;;;;;;;;5068407;28;20059;-71
2022/05/08 10:03:06;;;;;;;8.30;4.22;;;;;;;;;;5064048;28;20024;-69
2022/05/08 10:05:32;;;;;;;8.55;4.18;;;;;;;;;;5065994;28;20046;-70
2022/05/08 10:07:59;;;;;;;7.10;5.15;;;;;;;;;;5067687;28;20549;-70
2022/05/08 10:15:52;;;;;;;13.88;10.20;;;;;;;;;;5077665;28;20107;-69
2022/05/08 10:18:29;;;;;;;8.75;4.28;;;;;;;;;;5078333;28;20032;-68
2022/05/08 10:21:03;;;;;;;4.65;3.80;;;;;;;;;;5067803;28;20515;-72
2022/05/08 10:23:41;;;;;;;7.72;6.43;;;;;;;;;;5064995;28;20032;-68
2022/05/08 10:26:15;;;;;;;7.90;5.93;;;;;;;;;;5075940;28;20031;-68
2022/05/08 10:28:59;;;;;;;6.32;3.83;;;;;;;;;;5069392;28;20031;-70
2022/05/08 10:31:43;;;;;;;5.07;3.28;;;;;;;;;;5070600;28;20364;-66
2022/05/08 10:34:11;;;;;;;5.70;4.60;;;;;;;;;;5066736;28;20103;-68
2022/05/08 10:36:36;;;;;;;11.38;4.70;;;;;;;;;;5066696;28;20038;-71
2022/05/08 10:39:20;;;;;;;8.68;5.65;;;;;;;;;;5064866;28;20027;-69
2022/05/08 10:41:47;;;;;;;5.25;4.15;;;;;;;;;;5065179;28;20020;-68
2022/05/08 10:44:31;;;;;;;5.90;5.25;;;;;;;;;;5065592;28;20012;-73
2022/05/08 10:47:32;;;;;;;9.32;4.70;;;;;;;;;;5069691;28;20101;-71
2022/05/08 10:49:57;;;;;;;7.55;3.97;;;;;;;;;;5030992;28;20465;-67
2022/05/08 10:52:23;;;;;;;6.25;4.05;;;;;;;;;;5069508;28;20141;-66
2022/05/08 10:54:57;;;;;;;6.40;3.30;;;;;;;;;;5065994;28;20343;-66
2022/05/08 10:57:29;;;;;;;8.57;4.82;;;;;;;;;;5066583;28;20020;-65
2022/05/08 10:59:54;;;;;;;5.82;3.10;;;;;;;;;;5064808;28;20031;-67
2022/05/08 11:02:38;;;;;;;9.80;4.13;;;;;;;;;;5066309;28;20024;-69
2022/05/08 11:05:03;;;;;;;9.18;3.90;;;;;;;;;;5065403;28;20020;-67
2022/05/08 11:07:28;;;;;;;5.97;5.18;;;;;;;;;;5065075;28;20070;-69
2022/05/08 11:09:54;;;;;;;15.05;7.85;;;;;;;;;;5047449;28;20097;-67
2022/05/08 11:12:20;;;;;;;7.22;5.72;;;;;;;;;;5065053;28;20028;-67
2022/05/08 11:14:45;;;;;;;5.13;3.08;;;;;;;;;;5061848;28;20047;-68
2022/05/08 11:17:18;;;;;;;14.75;9.68;;;;;;;;;;5069097;28;20036;-69
2022/05/08 11:19:53;;;;;;;10.10;6.50;;;;;;;;;;5064615;28;20028;-69
2022/05/08 11:22:18;;;;;;;7.97;3.47;;;;;;;;;;5069372;28;20094;-65
2022/05/08 11:24:49;;;;;;;7.55;4.65;;;;;;;;;;5064493;28;20446;-65
2022/05/08 11:27:14;;;;;;;7.72;5.25;;;;;;;;;;5069479;28;20443;-67
2022/05/08 11:29:47;;;;;;;7.53;4.50;;;;;;;;;;5070005;28;20024;-67
2022/05/08 11:38:02;;;;;;;6.43;4.47;;;;;;;;;;5085026;28;20109;-69
2022/05/08 11:40:27;;;;;;;22.13;13.05;;;;;;;;;;5084727;28;20484;-69
2022/05/08 11:42:52;;;;;;;8.38;4.47;;;;;;;;;;5079686;28;20032;-72
2022/05/08 11:45:18;;;;;;;12.73;6.78;;;;;;;;;;5069962;28;20491;-69
2022/05/08 11:47:53;;;;;;;27.95;18.42;;;;;;;;;;5076980;28;20040;-68
2022/05/08 11:50:19;;;;;;;30.88;20.77;;;;;;;;;;5083995;28;20091;-69
2022/05/08 11:52:44;;;;;;;17.02;10.45;;;;;;;;;;5084225;28;20383;-69
2022/05/08 11:55:10;;;;;;;9.23;5.32;;;;;;;;;;5075370;28;20028;-68
2022/05/08 11:57:42;;;;;;;7.40;3.53;;;;;;;;;;5071463;28;20370;-68
2022/05/08 12:00:10;;;;;;;7.90;5.35;;;;;;;;;;5077025;28;20027;-66
2022/05/08 12:02:50;;;;;;;7.28;4.90;;;;;;;;;;5065639;28;20028;-66
2022/05/08 12:05:25;;;;;;;5.35;3.92;;;;;;;;;;5071925;28;20081;-71
2022/05/08 12:07:51;;;;;;;8.52;6.32;;;;;;;;;;5080353;28;20048;-70
2022/05/08 12:10:17;;;;;;;7.75;5.32;;;;;;;;;;5083457;28;20031;-69
2022/05/08 12:12:42;;;;;;;9.63;7.57;;;;;;;;;;5082087;28;20028;-73
2022/05/08 12:15:08;;;;;;;9.00;5.28;;;;;;;;;;5083155;28;20111;-70
2022/05/08 12:17:39;;;;;;;8.45;4.22;;;;;;;;;;5080649;28;20031;-67
2022/05/08 12:20:09;;;;;;;23.75;18.40;;;;;;;;;;5069158;28;20401;-72
2022/05/08 12:22:35;;;;;;;8.93;5.57;;;;;;;;;;5072121;28;20572;-67
2022/05/08 12:25:00;;;;;;;11.77;7.93;;;;;;;;;;5079712;28;20081;-68
2022/05/08 12:27:26;;;;;;;17.10;11.27;;;;;;;;;;5075559;28;20028;-69
2022/05/08 12:29:53;;;;;;;24.42;14.13;;;;;;;;;;5080536;28;20098;-69
2022/05/08 12:32:20;;;;;;;27.92;15.75;;;;;;;;;;5071241;28;20035;-69
2022/05/08 12:34:46;;;;;;;12.45;5.28;;;;;;;;;;5080765;28;20035;-68
2022/05/08 12:37:12;;;;;;;11.40;7.82;;;;;;;;;;5070723;28;20015;-68
2022/05/08 12:39:38;;;;;;;5.68;4.03;;;;;;;;;;5069420;28;20024;-72
2022/05/08 12:42:04;;;;;;;10.15;5.13;;;;;;;;;;5079298;28;20363;-67
2022/05/08 12:44:29;;;;;;;3.20;2.75;;;;;;;;;;5068896;28;20030;-66
2022/05/08 12:46:56;;;;;;;8.15;2.83;;;;;;;;;;5081880;28;20077;-65
2022/05/08 12:49:21;;;;;;;4.15;2.58;;;;;;;;;;5071427;28;20016;-66
2022/05/08 12:51:46;;;;;;;4.72;2.40;;;;;;;;;;5082380;28;20110;-70
2022/05/08 12:54:12;;;;;;;5.03;2.40;;;;;;;;;;5082646;28;20102;-69
2022/05/08 12:56:37;;;;;;;4.15;3.03;;;;;;;;;;5081988;28;20476;-69
2022/05/08 13:01:46;;;;;;;4.90;2.90;;;;;;;;;;5081763;28;20039;-67
2022/05/08 13:04:12;;;;;;;4.88;2.17;;;;;;;;;;5071477;28;20040;-69
2022/05/08 13:06:39;;;;;;;3.63;2.45;;;;;;;;;;5080468;28;20048;-66
2022/05/08 13:09:06;;;;;;;4.57;2.28;;;;;;;;;;5078935;28;20035;-67
2022/05/08 13:11:32;;;;;;;5.50;2.70;;;;;;;;;;5073816;28;20031;-68
2022/05/08 13:13:57;;;;;;;3.45;2.67;;;;;;;;;;5081830;28;20039;-66
2022/05/08 13:16:22;;;;;;;3.65;2.70;;;;;;;;;;5081871;28;20115;-68
2022/05/08 13:18:48;;;;;;;5.60;3.63;;;;;;;;;;5079003;28;21158;-66
2022/05/08 13:21:13;;;;;;;7.75;5.13;;;;;;;;;;5080998;28;20404;-68
2022/05/08 13:23:39;;;;;;;6.35;3.20;;;;;;;;;;5073875;28;20022;-68
2022/05/08 13:26:04;;;;;;;5.63;3.20;;;;;;;;;;5068003;28;20443;-66
2022/05/08 13:28:32;;;;;;;6.43;2.60;;;;;;;;;;5072357;28;20040;-67
2022/05/08 13:30:58;;;;;;;3.88;3.03;;;;;;;;;;5068577;28;20020;-70
2022/05/08 13:33:26;;;;;;;3.92;2.78;;;;;;;;;;5067117;28;20038;-65
2022/05/08 13:35:53;;;;;;;5.10;2.90;;;;;;;;;;5067059;28;20027;-69
2022/05/08 13:38:20;;;;;;;3.22;2.55;;;;;;;;;;5068651;28;20027;-68
2022/05/08 13:40:46;;;;;;;7.57;2.92;;;;;;;;;;5049217;28;20293;-68
2022/05/08 13:43:11;;;;;;;8.13;2.80;;;;;;;;;;5067897;28;20035;-66
2022/05/08 13:45:36;;;;;;;5.35;2.83;;;;;;;;;;5068062;28;20036;-71
2022/05/08 13:48:02;;;;;;;4.55;3.33;;;;;;;;;;5066525;28;20030;-67
2022/05/08 13:50:27;;;;;;;5.88;3.67;;;;;;;;;;5068161;28;20031;-65
2022/05/08 13:52:52;;;;;;;4.65;3.08;;;;;;;;;;5066723;28;20103;-72
2022/05/08 13:55:18;;;;;;;3.85;2.75;;;;;;;;;;5067908;28;20457;-72
2022/05/08 13:57:43;;;;;;;5.15;2.83;;;;;;;;;;5073875;28;20055;-65
2022/05/08 14:00:14;;;;;;;5.40;2.60;;;;;;;;;;5081160;28;20024;-67
2022/05/08 14:02:39;;;;;;;5.13;2.45;;;;;;;;;;5080989;28;20027;-66
2022/05/08 14:05:05;;;;;;;3.63;2.40;;;;;;;;;;5080732;28;20039;-71
2022/05/08 14:07:30;;;;;;;5.80;2.45;;;;;;;;;;5080513;28;20201;-69
2022/05/08 14:09:56;;;;;;;3.88;2.33;;;;;;;;;;5081245;28;20031;-68
2022/05/08 14:12:21;;;;;;;3.38;2.30;;;;;;;;;;5080780;28;20019;-69
2022/05/08 14:14:46;;;;;;;6.68;3.30;;;;;;;;;;5073218;28;20090;-74
2022/05/08 14:17:12;;;;;;;2.70;2.50;;;;;;;;;;5071499;28;20472;-74
2022/05/08 14:19:37;;;;;;;6.57;2.70;;;;;;;;;;5069867;28;20051;-68
2022/05/08 14:22:03;;;;;;;6.10;3.13;;;;;;;;;;5067992;28;20027;-71
2022/05/08 14:24:29;;;;;;;5.03;3.28;;;;;;;;;;5065769;28;20051;-70
2022/05/08 14:26:54;;;;;;;5.03;3.15;;;;;;;;;;5067034;28;20039;-68
2022/05/08 14:29:19;;;;;;;2.55;2.22;;;;;;;;;;5052397;28;20458;-68
2022/05/08 14:37:12;;;;;;;4.07;2.58;;;;;;;;;;5067202;28;20086;-74
2022/05/08 14:39:38;;;;;;;7.68;2.60;;;;;;;;;;5066971;28;20051;-72
2022/05/08 14:42:03;;;;;;;4.47;2.88;;;;;;;;;;5066182;28;20028;-69
2022/05/08 14:44:29;;;;;;;13.45;6.32;;;;;;;;;;5064245;28;20119;-71
2022/05/08 14:46:55;;;;;;;4.90;2.78;;;;;;;;;;5065723;28;20032;-67
2022/05/08 14:49:20;;;;;;;5.60;3.13;;;;;;;;;;5068433;28;20769;-67
2022/05/08 14:51:46;;;;;;;3.38;2.85;;;;;;;;;;5067134;28;20035;-65
2022/05/08 14:54:11;;;;;;;6.15;2.70;;;;;;;;;;5079063;28;20050;-65
2022/05/08 14:56:36;;;;;;;2.97;2.15;;;;;;;;;;5069527;28;20031;-66
2022/05/08 14:59:01;;;;;;;4.30;2.20;;;;;;;;;;5078862;28;20043;-71
2022/05/08 15:01:27;;;;;;;7.93;3.88;;;;;;;;;;5076189;28;20054;-70
2022/05/08 15:03:52;;;;;;;5.95;2.80;;;;;;;;;;5064959;28;20024;-67
2022/05/08 15:06:17;;;;;;;7.03;4.60;;;;;;;;;;5065612;28;20500;-72
2022/05/08 15:08:43;;;;;;;4.97;2.85;;;;;;;;;;5063831;28;20136;-68